createdAt,value
2018-05-06T00:00:35.540Z,15.31
2018-05-06T00:01:35.466Z,15.33
2018-05-06T00:02:35.391Z,15.28
2018-05-06T00:03:35.318Z,15.24
2018-05-06T00:04:35.243Z,15.15
2018-05-06T00:05:35.171Z,15.27
2018-05-06T00:06:35.099Z,15.21
2018-05-06T00:07:35.025Z,15.15
2018-05-06T00:08:34.952Z,15.12
2018-05-06T00:09:34.880Z,15.13
2018-05-06T00:10:34.810Z,15.21
2018-05-06T00:11:34.734Z,15.26
2018-05-06T00:12:34.659Z,15.15
2018-05-06T00:13:34.594Z,15.20
2018-05-06T00:14:34.517Z,15.13
2018-05-06T00:15:34.440Z,15.12
2018-05-06T00:16:34.366Z,15.23
2018-05-06T00:17:34.293Z,15.20
2018-05-06T00:18:34.221Z,15.20
2018-05-06T00:19:34.150Z,15.26
2018-05-06T00:20:34.075Z,15.21
2018-05-06T00:21:34.002Z,15.23
2018-05-06T00:22:33.927Z,15.12
2018-05-06T00:23:33.856Z,15.23
2018-05-06T00:24:33.782Z,15.15
2018-05-06T00:25:33.709Z,15.15
2018-05-06T00:26:33.635Z,15.15
2018-05-06T00:27:33.564Z,15.12
2018-05-06T00:28:33.489Z,15.09
2018-05-06T00:29:33.421Z,15.09
2018-05-06T00:30:33.344Z,15.05
2018-05-06T00:31:33.270Z,15.08
2018-05-06T00:32:33.199Z,15.08
2018-05-06T00:33:33.180Z,15.13
2018-05-06T00:34:33.049Z,15.12
2018-05-06T00:35:32.977Z,15.10
2018-05-06T00:36:32.918Z,14.94
2018-05-06T00:37:32.830Z,14.98
2018-05-06T00:38:32.757Z,14.94
2018-05-06T00:39:32.684Z,14.87
2018-05-06T00:40:32.610Z,14.98
2018-05-06T00:41:32.538Z,14.97
2018-05-06T00:42:32.465Z,15.01
2018-05-06T00:43:32.391Z,15.02
2018-05-06T00:44:32.321Z,15.02
2018-05-06T00:45:32.245Z,15.01
2018-05-06T00:46:32.170Z,15.03
2018-05-06T00:47:32.096Z,15.13
2018-05-06T00:48:32.023Z,15.01
2018-05-06T00:49:31.951Z,14.91
2018-05-06T00:50:31.879Z,14.95
2018-05-06T00:51:31.805Z,15.02
2018-05-06T00:52:31.729Z,14.97
2018-05-06T00:53:31.655Z,14.93
2018-05-06T00:54:31.581Z,14.91
2018-05-06T00:55:31.509Z,15.02
2018-05-06T00:56:31.436Z,14.97
2018-05-06T00:57:31.362Z,14.90
2018-05-06T00:58:31.288Z,15.01
2018-05-06T00:59:31.220Z,14.87
2018-05-06T01:00:31.141Z,14.85
2018-05-06T01:01:31.070Z,14.83
2018-05-06T01:02:30.996Z,14.83
2018-05-06T01:03:30.920Z,14.83
2018-05-06T01:04:30.848Z,14.85
2018-05-06T01:05:30.773Z,14.79
2018-05-06T01:06:30.699Z,14.74
2018-05-06T01:07:30.627Z,14.72
2018-05-06T01:08:30.554Z,14.64
2018-05-06T01:09:30.479Z,14.47
2018-05-06T01:10:30.407Z,14.36
2018-05-06T01:11:30.334Z,14.34
2018-05-06T01:12:30.262Z,14.23
2018-05-06T01:13:30.194Z,14.23
2018-05-06T01:14:30.113Z,14.27
2018-05-06T01:15:30.040Z,14.23
2018-05-06T01:16:29.965Z,14.27
2018-05-06T01:17:29.897Z,14.24
2018-05-06T01:18:29.818Z,14.27
2018-05-06T01:19:29.745Z,14.34
2018-05-06T01:20:29.671Z,14.32
2018-05-06T01:21:29.597Z,14.28
2018-05-06T01:22:29.523Z,14.32
2018-05-06T01:23:29.451Z,14.29
2018-05-06T01:24:29.377Z,14.38
2018-05-06T01:25:29.305Z,14.39
2018-05-06T01:26:29.230Z,14.35
2018-05-06T01:27:29.157Z,14.49
2018-05-06T01:28:29.083Z,14.41
2018-05-06T01:29:29.011Z,14.47
2018-05-06T01:30:28.936Z,14.53
2018-05-06T01:31:28.863Z,14.53
2018-05-06T01:32:28.788Z,14.42
2018-05-06T01:33:28.715Z,14.46
2018-05-06T01:34:28.645Z,14.42
2018-05-06T01:35:28.568Z,14.53
2018-05-06T01:36:28.495Z,14.39
2018-05-06T01:37:28.420Z,14.42
2018-05-06T01:38:28.349Z,14.35
2018-05-06T01:39:28.274Z,14.49
2018-05-06T01:40:28.198Z,14.49
2018-05-06T01:41:28.126Z,14.47
2018-05-06T01:42:28.051Z,14.52
2018-05-06T01:43:27.978Z,14.49
2018-05-06T01:44:27.904Z,14.47
2018-05-06T01:45:27.832Z,14.49
2018-05-06T01:46:27.755Z,14.59
2018-05-06T01:47:27.682Z,14.60
2018-05-06T01:48:27.608Z,14.60
2018-05-06T01:49:27.534Z,14.56
2018-05-06T01:50:27.462Z,14.57
2018-05-06T01:51:27.387Z,14.47
2018-05-06T01:52:27.313Z,14.49
2018-05-06T01:53:27.240Z,14.50
2018-05-06T01:54:27.165Z,14.49
2018-05-06T01:55:27.091Z,14.53
2018-05-06T01:56:27.017Z,14.42
2018-05-06T01:57:26.943Z,14.44
2018-05-06T01:58:26.870Z,14.36
2018-05-06T01:59:26.797Z,14.47
2018-05-06T02:00:26.721Z,14.49
2018-05-06T02:01:26.647Z,14.41
2018-05-06T02:02:26.575Z,14.44
2018-05-06T02:03:26.501Z,14.38
2018-05-06T02:04:26.426Z,14.44
2018-05-06T02:05:26.353Z,14.35
2018-05-06T02:06:26.279Z,14.29
2018-05-06T02:07:26.205Z,14.35
2018-05-06T02:08:26.131Z,14.32
2018-05-06T02:09:26.058Z,14.31
2018-05-06T02:10:25.984Z,14.38
2018-05-06T02:11:25.909Z,14.38
2018-05-06T02:12:25.834Z,14.38
2018-05-06T02:13:25.761Z,14.39
2018-05-06T02:14:25.838Z,14.35
2018-05-06T02:15:25.614Z,14.34
2018-05-06T02:16:25.540Z,14.35
2018-05-06T02:17:25.464Z,14.35
2018-05-06T02:18:25.392Z,14.31
2018-05-06T02:19:25.318Z,14.32
2018-05-06T02:20:25.243Z,14.19
2018-05-06T02:21:25.168Z,14.27
2018-05-06T02:22:25.095Z,14.11
2018-05-06T02:23:25.032Z,14.07
2018-05-06T02:24:24.970Z,14.09
2018-05-06T02:25:24.874Z,14.07
2018-05-06T02:26:24.799Z,14.02
2018-05-06T02:27:24.727Z,13.94
2018-05-06T02:28:24.725Z,13.94
2018-05-06T02:29:24.577Z,13.89
2018-05-06T02:30:24.504Z,13.83
2018-05-06T02:31:24.432Z,13.81
2018-05-06T02:32:24.358Z,13.70
2018-05-06T02:33:24.283Z,13.65
2018-05-06T02:34:24.208Z,13.53
2018-05-06T02:35:24.135Z,13.43
2018-05-06T02:36:24.066Z,13.43
2018-05-06T02:37:23.990Z,13.27
2018-05-06T02:38:23.914Z,13.21
2018-05-06T02:39:23.840Z,13.15
2018-05-06T02:40:23.765Z,13.06
2018-05-06T02:41:23.692Z,13.06
2018-05-06T02:42:23.618Z,13.04
2018-05-06T02:43:23.543Z,12.97
2018-05-06T02:44:23.469Z,12.81
2018-05-06T02:45:23.395Z,12.78
2018-05-06T02:46:23.320Z,12.73
2018-05-06T02:47:23.247Z,12.74
2018-05-06T02:48:23.175Z,12.85
2018-05-06T02:49:23.097Z,12.74
2018-05-06T02:50:23.025Z,12.79
2018-05-06T02:51:22.958Z,12.77
2018-05-06T02:52:22.876Z,12.59
2018-05-06T02:53:22.801Z,12.63
2018-05-06T02:54:22.727Z,12.59
2018-05-06T02:55:22.652Z,12.49
2018-05-06T02:56:22.578Z,12.45
2018-05-06T02:57:22.504Z,12.42
2018-05-06T02:58:22.429Z,12.24
2018-05-06T02:59:22.356Z,12.12
2018-05-06T03:00:22.281Z,12.08
2018-05-06T03:01:22.205Z,11.95
2018-05-06T03:02:22.132Z,11.94
2018-05-06T03:03:22.057Z,11.93
2018-05-06T03:04:21.985Z,11.76
2018-05-06T03:05:21.908Z,11.86
2018-05-06T03:06:21.832Z,11.67
2018-05-06T03:07:21.760Z,11.74
2018-05-06T03:08:21.682Z,11.68
2018-05-06T03:09:21.609Z,11.59
2018-05-06T03:10:21.535Z,11.56
2018-05-06T03:11:21.460Z,11.53
2018-05-06T03:12:21.384Z,11.38
2018-05-06T03:13:21.309Z,11.35
2018-05-06T03:14:21.234Z,11.32
2018-05-06T03:15:21.160Z,11.29
2018-05-06T03:16:21.085Z,11.31
2018-05-06T03:17:21.009Z,11.20
2018-05-06T03:18:20.935Z,11.14
2018-05-06T03:19:20.861Z,11.14
2018-05-06T03:20:20.785Z,10.99
2018-05-06T03:21:20.710Z,11.05
2018-05-06T03:22:20.634Z,11.03
2018-05-06T03:23:20.561Z,11.06
2018-05-06T03:24:20.487Z,10.93
2018-05-06T03:25:20.409Z,11.10
2018-05-06T03:26:20.335Z,11.02
2018-05-06T03:27:20.259Z,11.00
2018-05-06T03:28:20.183Z,11.06
2018-05-06T03:29:20.107Z,11.11
2018-05-06T03:30:20.034Z,11.05
2018-05-06T03:31:19.957Z,11.06
2018-05-06T03:32:19.881Z,11.00
2018-05-06T03:33:19.806Z,11.02
2018-05-06T03:34:19.731Z,10.98
2018-05-06T03:35:19.656Z,11.03
2018-05-06T03:36:19.579Z,10.99
2018-05-06T03:37:19.507Z,10.98
2018-05-06T03:38:19.430Z,10.96
2018-05-06T03:39:19.357Z,10.92
2018-05-06T03:40:19.277Z,10.95
2018-05-06T03:41:19.207Z,10.88
2018-05-06T03:42:19.128Z,10.87
2018-05-06T03:43:19.053Z,10.81
2018-05-06T03:44:18.978Z,10.91
2018-05-06T03:45:18.900Z,10.92
2018-05-06T03:46:18.825Z,11.20
2018-05-06T03:47:18.749Z,11.71
2018-05-06T03:48:19.024Z,12.00
2018-05-06T03:49:18.598Z,12.51
2018-05-06T03:50:18.525Z,12.81
2018-05-06T03:51:18.447Z,13.06
2018-05-06T03:52:18.369Z,13.17
2018-05-06T03:53:18.296Z,13.24
2018-05-06T03:54:18.222Z,13.21
2018-05-06T03:55:18.145Z,13.15
2018-05-06T03:56:18.067Z,13.33
2018-05-06T03:57:17.997Z,13.22
2018-05-06T03:58:17.918Z,13.24
2018-05-06T03:59:17.842Z,13.22
2018-05-06T04:00:17.837Z,13.38
2018-05-06T04:01:17.691Z,13.38
2018-05-06T04:02:17.615Z,13.44
2018-05-06T04:03:17.540Z,13.43
2018-05-06T04:04:17.465Z,13.41
2018-05-06T04:05:17.389Z,13.47
2018-05-06T04:06:17.314Z,13.43
2018-05-06T04:07:17.239Z,13.43
2018-05-06T04:08:17.164Z,13.45
2018-05-06T04:09:17.089Z,13.50
2018-05-06T04:10:17.013Z,13.48
2018-05-06T04:11:16.939Z,13.43
2018-05-06T04:12:16.863Z,13.45
2018-05-06T04:13:16.789Z,13.38
2018-05-06T04:14:16.713Z,13.44
2018-05-06T04:15:16.638Z,13.29
2018-05-06T04:16:16.563Z,13.36
2018-05-06T04:17:16.490Z,13.27
2018-05-06T04:18:16.412Z,13.22
2018-05-06T04:19:16.339Z,13.33
2018-05-06T04:20:16.262Z,13.25
2018-05-06T04:21:16.205Z,13.36
2018-05-06T04:22:16.113Z,13.22
2018-05-06T04:23:16.039Z,13.27
2018-05-06T04:24:15.962Z,13.28
2018-05-06T04:25:15.888Z,13.15
2018-05-06T04:26:15.812Z,13.11
2018-05-06T04:27:15.739Z,13.24
2018-05-06T04:28:15.663Z,13.22
2018-05-06T04:29:15.589Z,13.14
2018-05-06T04:30:15.513Z,13.03
2018-05-06T04:31:15.443Z,13.09
2018-05-06T04:32:15.363Z,13.09
2018-05-06T04:33:15.289Z,13.02
2018-05-06T04:34:15.214Z,13.11
2018-05-06T04:35:15.139Z,13.07
2018-05-06T04:36:15.064Z,13.06
2018-05-06T04:37:14.990Z,13.09
2018-05-06T04:38:14.914Z,13.04
2018-05-06T04:39:14.841Z,12.99
2018-05-06T04:40:14.764Z,12.92
2018-05-06T04:41:14.689Z,12.97
2018-05-06T04:42:14.617Z,12.91
2018-05-06T04:43:14.539Z,12.86
2018-05-06T04:44:14.506Z,12.78
2018-05-06T04:45:14.390Z,12.86
2018-05-06T04:46:14.315Z,12.82
2018-05-06T04:47:14.241Z,12.88
2018-05-06T04:48:14.165Z,12.79
2018-05-06T04:49:14.092Z,12.85
2018-05-06T04:50:14.016Z,12.81
2018-05-06T04:51:13.942Z,12.78
2018-05-06T04:52:13.866Z,12.82
2018-05-06T04:53:13.795Z,12.86
2018-05-06T04:54:13.717Z,12.67
2018-05-06T04:55:13.644Z,12.55
2018-05-06T04:56:13.568Z,12.49
2018-05-06T04:57:13.493Z,12.53
2018-05-06T04:58:13.419Z,12.48
2018-05-06T04:59:13.344Z,12.42
2018-05-06T05:00:13.268Z,12.44
2018-05-06T05:01:13.194Z,12.45
2018-05-06T05:02:13.119Z,12.46
2018-05-06T05:03:13.046Z,12.49
2018-05-06T05:04:12.968Z,12.48
2018-05-06T05:05:12.895Z,12.48
2018-05-06T05:06:12.827Z,12.55
2018-05-06T05:07:12.745Z,12.55
2018-05-06T05:08:12.674Z,12.45
2018-05-06T05:09:12.595Z,12.49
2018-05-06T05:10:12.521Z,12.49
2018-05-06T05:11:12.446Z,12.51
2018-05-06T05:12:12.372Z,12.51
2018-05-06T05:13:12.298Z,12.59
2018-05-06T05:14:12.221Z,12.61
2018-05-06T05:15:12.148Z,12.79
2018-05-06T05:16:12.072Z,12.82
2018-05-06T05:17:11.998Z,12.96
2018-05-06T05:18:11.926Z,13.07
2018-05-06T05:19:11.848Z,13.04
2018-05-06T05:20:11.774Z,13.18
2018-05-06T05:21:11.699Z,13.21
2018-05-06T05:22:11.624Z,13.09
2018-05-06T05:23:11.550Z,13.11
2018-05-06T05:24:11.474Z,13.14
2018-05-06T05:25:11.401Z,13.07
2018-05-06T05:26:11.328Z,13.18
2018-05-06T05:27:11.252Z,13.04
2018-05-06T05:28:11.176Z,13.11
2018-05-06T05:29:11.111Z,13.17
2018-05-06T05:30:11.032Z,13.21
2018-05-06T05:31:10.960Z,13.25
2018-05-06T05:32:10.880Z,13.24
2018-05-06T05:33:10.807Z,13.25
2018-05-06T05:34:10.731Z,13.25
2018-05-06T05:35:10.658Z,13.27
2018-05-06T05:36:10.582Z,13.17
2018-05-06T05:37:10.508Z,13.21
2018-05-06T05:38:10.435Z,13.27
2018-05-06T05:39:10.362Z,13.43
2018-05-06T05:40:10.286Z,13.38
2018-05-06T05:41:10.210Z,13.43
2018-05-06T05:42:10.138Z,13.28
2018-05-06T05:43:10.063Z,13.32
2018-05-06T05:44:09.989Z,13.40
2018-05-06T05:45:09.915Z,13.48
2018-05-06T05:46:09.841Z,13.48
2018-05-06T05:47:09.767Z,13.53
2018-05-06T05:48:09.692Z,13.48
2018-05-06T05:49:09.618Z,13.53
2018-05-06T05:50:09.543Z,13.56
2018-05-06T05:51:09.471Z,13.61
2018-05-06T05:52:09.395Z,13.76
2018-05-06T05:53:09.322Z,13.62
2018-05-06T05:54:09.247Z,13.65
2018-05-06T05:55:09.175Z,13.78
2018-05-06T05:56:09.099Z,13.86
2018-05-06T05:57:09.026Z,13.94
2018-05-06T05:58:08.953Z,14.01
2018-05-06T05:59:08.879Z,14.05
2018-05-06T06:00:08.803Z,14.11
2018-05-06T06:01:08.734Z,14.07
2018-05-06T06:02:08.657Z,14.09
2018-05-06T06:03:08.582Z,14.13
2018-05-06T06:04:08.508Z,14.29
2018-05-06T06:05:08.436Z,14.28
2018-05-06T06:06:08.362Z,14.32
2018-05-06T06:07:08.293Z,14.35
2018-05-06T06:08:08.213Z,14.38
2018-05-06T06:09:08.140Z,14.46
2018-05-06T06:10:08.068Z,14.57
2018-05-06T06:11:07.994Z,14.68
2018-05-06T06:12:07.920Z,14.71
2018-05-06T06:13:07.847Z,14.85
2018-05-06T06:14:07.772Z,15.01
2018-05-06T06:15:07.700Z,14.97
2018-05-06T06:16:07.625Z,15.02
2018-05-06T06:17:07.552Z,15.12
2018-05-06T06:18:07.483Z,15.12
2018-05-06T06:19:07.405Z,15.20
2018-05-06T06:20:07.333Z,15.12
2018-05-06T06:21:07.259Z,15.18
2018-05-06T06:22:07.187Z,15.21
2018-05-06T06:23:07.119Z,15.34
2018-05-06T06:24:07.039Z,15.35
2018-05-06T06:25:06.966Z,15.38
2018-05-06T06:26:06.895Z,15.27
2018-05-06T06:27:06.820Z,15.35
2018-05-06T06:28:06.747Z,15.43
2018-05-06T06:29:06.673Z,15.53
2018-05-06T06:30:06.601Z,15.51
2018-05-06T06:31:06.530Z,15.63
2018-05-06T06:32:06.453Z,15.64
2018-05-06T06:33:06.382Z,15.70
2018-05-06T06:34:06.311Z,15.70
2018-05-06T06:35:06.238Z,15.70
2018-05-06T06:36:06.162Z,15.76
2018-05-06T06:37:06.090Z,15.82
2018-05-06T06:38:06.017Z,15.81
2018-05-06T06:39:05.945Z,15.92
2018-05-06T06:40:05.874Z,15.89
2018-05-06T06:41:05.800Z,16.01
2018-05-06T06:42:05.726Z,15.99
2018-05-06T06:43:05.655Z,15.99
2018-05-06T06:44:05.579Z,15.99
2018-05-06T06:45:05.512Z,16.04
2018-05-06T06:46:05.435Z,16.03
2018-05-06T06:47:05.363Z,16.04
2018-05-06T06:48:05.322Z,16.10
2018-05-06T06:49:05.218Z,16.07
2018-05-06T06:50:05.154Z,16.08
2018-05-06T06:51:05.075Z,16.12
2018-05-06T06:52:05.000Z,16.08
2018-05-06T06:53:04.928Z,16.08
2018-05-06T06:54:04.856Z,16.06
2018-05-06T06:55:04.782Z,16.10
2018-05-06T06:56:04.709Z,16.27
2018-05-06T06:57:04.638Z,16.33
2018-05-06T06:58:04.565Z,16.29
2018-05-06T06:59:04.501Z,16.29
2018-05-06T07:00:04.419Z,16.33
2018-05-06T07:01:04.349Z,16.45
2018-05-06T07:02:04.276Z,16.41
2018-05-06T07:03:04.203Z,16.41
2018-05-06T07:04:04.130Z,16.42
2018-05-06T07:05:04.057Z,16.40
2018-05-06T07:06:03.985Z,16.63
2018-05-06T07:07:03.913Z,16.57
2018-05-06T07:08:03.839Z,16.60
2018-05-06T07:09:03.767Z,16.41
2018-05-06T07:10:03.694Z,16.48
2018-05-06T07:11:03.623Z,16.57
2018-05-06T07:12:03.548Z,16.55
2018-05-06T07:13:03.477Z,16.70
2018-05-06T07:14:03.405Z,16.82
2018-05-06T07:15:03.335Z,16.88
2018-05-06T07:16:03.260Z,16.98
2018-05-06T07:17:03.188Z,16.92
2018-05-06T07:18:03.117Z,16.90
2018-05-06T07:19:03.048Z,16.93
2018-05-06T07:20:02.971Z,16.92
2018-05-06T07:21:02.898Z,16.98
2018-05-06T07:22:02.826Z,17.08
2018-05-06T07:23:02.759Z,17.14
2018-05-06T07:24:02.681Z,17.21
2018-05-06T07:25:02.610Z,17.15
2018-05-06T07:26:02.538Z,17.21
2018-05-06T07:27:02.482Z,17.21
2018-05-06T07:28:02.394Z,17.17
2018-05-06T07:29:02.323Z,17.29
2018-05-06T07:30:02.360Z,17.29
2018-05-06T07:31:02.179Z,17.43
2018-05-06T07:32:02.110Z,17.54
2018-05-06T07:33:02.033Z,17.70
2018-05-06T07:34:01.963Z,17.71
2018-05-06T07:35:01.891Z,17.74
2018-05-06T07:36:01.820Z,17.77
2018-05-06T07:37:01.746Z,17.73
2018-05-06T07:38:01.674Z,17.92
2018-05-06T07:39:01.604Z,17.95
2018-05-06T07:40:01.531Z,17.96
2018-05-06T07:41:01.459Z,17.87
2018-05-06T07:42:01.389Z,17.79
2018-05-06T07:43:01.317Z,17.69
2018-05-06T07:44:01.244Z,17.73
2018-05-06T07:45:01.175Z,17.77
2018-05-06T07:46:01.103Z,17.81
2018-05-06T07:47:01.032Z,17.71
2018-05-06T07:48:00.958Z,17.60
2018-05-06T07:49:00.905Z,17.63
2018-05-06T07:50:00.814Z,17.71
2018-05-06T07:51:00.743Z,17.87
2018-05-06T07:52:00.671Z,17.96
2018-05-06T07:53:00.598Z,18.00
2018-05-06T07:54:00.528Z,18.11
2018-05-06T07:55:00.457Z,18.14
2018-05-06T07:56:00.385Z,18.07
2018-05-06T07:57:00.312Z,18.07
2018-05-06T07:58:00.242Z,17.88
2018-05-06T07:59:00.170Z,17.98
2018-05-06T08:00:00.100Z,18.06
2018-05-06T08:01:00.027Z,18.19
2018-05-06T08:01:59.957Z,18.11
2018-05-06T08:02:59.886Z,18.18
2018-05-06T08:03:59.813Z,18.14
2018-05-06T08:04:59.742Z,18.29
2018-05-06T08:05:59.669Z,18.42
2018-05-06T08:06:59.599Z,18.53
2018-05-06T08:07:59.531Z,18.58
2018-05-06T08:08:59.458Z,18.59
2018-05-06T08:09:59.385Z,18.58
2018-05-06T08:10:59.314Z,18.52
2018-05-06T08:11:59.243Z,18.49
2018-05-06T08:12:59.171Z,18.58
2018-05-06T08:13:59.101Z,18.52
2018-05-06T08:14:59.029Z,18.34
2018-05-06T08:15:58.957Z,18.29
2018-05-06T08:16:58.886Z,18.55
2018-05-06T08:17:58.814Z,18.64
2018-05-06T08:18:58.744Z,18.73
2018-05-06T08:19:58.675Z,18.80
2018-05-06T08:20:58.600Z,18.59
2018-05-06T08:21:58.531Z,18.58
2018-05-06T08:22:58.459Z,18.67
2018-05-06T08:23:58.386Z,18.67
2018-05-06T08:24:58.315Z,18.76
2018-05-06T08:25:58.246Z,18.74
2018-05-06T08:26:58.174Z,18.73
2018-05-06T08:27:58.103Z,18.80
2018-05-06T08:28:58.031Z,18.79
2018-05-06T08:29:57.962Z,18.84
2018-05-06T08:30:57.890Z,18.74
2018-05-06T08:31:57.818Z,18.77
2018-05-06T08:32:57.748Z,18.74
2018-05-06T08:33:57.678Z,18.64
2018-05-06T08:34:57.605Z,18.58
2018-05-06T08:35:57.541Z,18.65
2018-05-06T08:36:57.463Z,18.67
2018-05-06T08:37:57.394Z,18.77
2018-05-06T08:38:57.322Z,18.90
2018-05-06T08:39:57.251Z,18.95
2018-05-06T08:40:57.180Z,18.77
2018-05-06T08:41:57.110Z,18.69
2018-05-06T08:42:57.038Z,18.82
2018-05-06T08:43:56.968Z,18.89
2018-05-06T08:44:56.896Z,19.11
2018-05-06T08:45:56.825Z,19.11
2018-05-06T08:46:56.755Z,19.32
2018-05-06T08:47:56.683Z,19.32
2018-05-06T08:48:56.613Z,19.42
2018-05-06T08:49:56.549Z,19.42
2018-05-06T08:50:56.473Z,19.53
2018-05-06T08:51:56.401Z,19.57
2018-05-06T08:52:56.332Z,19.75
2018-05-06T08:53:56.259Z,19.82
2018-05-06T08:54:56.191Z,19.75
2018-05-06T08:55:56.118Z,19.78
2018-05-06T08:56:56.048Z,19.78
2018-05-06T08:57:55.977Z,19.80
2018-05-06T08:58:55.907Z,19.76
2018-05-06T08:59:55.836Z,19.75
2018-05-06T09:00:55.766Z,19.72
2018-05-06T09:01:55.701Z,19.72
2018-05-06T09:02:55.626Z,19.75
2018-05-06T09:03:55.554Z,19.72
2018-05-06T09:04:55.485Z,19.75
2018-05-06T09:05:55.414Z,19.90
2018-05-06T09:06:55.343Z,19.95
2018-05-06T09:07:55.273Z,19.94
2018-05-06T09:08:55.203Z,19.97
2018-05-06T09:09:55.134Z,20.03
2018-05-06T09:10:55.063Z,20.00
2018-05-06T09:11:54.991Z,20.16
2018-05-06T09:12:54.922Z,20.31
2018-05-06T09:13:54.863Z,20.27
2018-05-06T09:14:54.785Z,20.33
2018-05-06T09:15:54.711Z,20.42
2018-05-06T09:16:54.642Z,20.40
2018-05-06T09:17:54.571Z,20.51
2018-05-06T09:18:54.501Z,20.56
2018-05-06T09:19:54.511Z,20.51
2018-05-06T09:20:54.361Z,20.56
2018-05-06T09:21:54.289Z,20.40
2018-05-06T09:22:54.219Z,20.24
2018-05-06T09:23:54.152Z,20.24
2018-05-06T09:24:54.081Z,20.34
2018-05-06T09:25:54.010Z,20.37
2018-05-06T09:26:53.945Z,20.28
2018-05-06T09:27:53.874Z,20.30
2018-05-06T09:28:53.800Z,20.16
2018-05-06T09:29:53.730Z,20.24
2018-05-06T09:30:53.661Z,20.26
2018-05-06T09:31:53.594Z,20.24
2018-05-06T09:32:53.524Z,20.30
2018-05-06T09:33:53.451Z,20.37
2018-05-06T09:34:53.382Z,20.40
2018-05-06T09:35:53.310Z,20.43
2018-05-06T09:36:53.240Z,20.34
2018-05-06T09:37:53.170Z,20.47
2018-05-06T09:38:53.100Z,20.46
2018-05-06T09:39:53.034Z,20.42
2018-05-06T09:40:52.963Z,20.40
2018-05-06T09:41:52.891Z,20.59
2018-05-06T09:42:52.825Z,20.71
2018-05-06T09:43:52.749Z,20.75
2018-05-06T09:44:52.680Z,20.74
2018-05-06T09:45:52.615Z,20.79
2018-05-06T09:46:52.541Z,20.83
2018-05-06T09:47:52.483Z,20.86
2018-05-06T09:48:52.402Z,20.87
2018-05-06T09:49:52.331Z,20.90
2018-05-06T09:50:52.262Z,20.96
2018-05-06T09:51:52.191Z,21.05
2018-05-06T09:52:52.122Z,21.11
2018-05-06T09:53:52.102Z,21.21
2018-05-06T09:54:51.985Z,21.20
2018-05-06T09:55:51.912Z,21.06
2018-05-06T09:56:51.841Z,21.01
2018-05-06T09:57:51.774Z,20.83
2018-05-06T09:58:51.703Z,20.87
2018-05-06T09:59:51.639Z,20.93
2018-05-06T10:00:51.564Z,20.99
2018-05-06T10:01:51.495Z,20.98
2018-05-06T10:02:51.425Z,21.06
2018-05-06T10:03:51.354Z,21.08
2018-05-06T10:04:51.286Z,21.05
2018-05-06T10:05:51.216Z,20.89
2018-05-06T10:06:51.146Z,21.01
2018-05-06T10:07:51.076Z,21.01
2018-05-06T10:08:51.010Z,20.98
2018-05-06T10:09:50.937Z,20.99
2018-05-06T10:10:50.868Z,21.11
2018-05-06T10:11:50.802Z,21.16
2018-05-06T10:12:50.729Z,21.27
2018-05-06T10:13:50.660Z,21.30
2018-05-06T10:14:50.595Z,21.45
2018-05-06T10:15:50.543Z,21.51
2018-05-06T10:16:50.451Z,21.45
2018-05-06T10:17:50.382Z,21.51
2018-05-06T10:18:50.312Z,21.60
2018-05-06T10:19:50.242Z,21.54
2018-05-06T10:20:50.173Z,21.49
2018-05-06T10:21:50.104Z,21.51
2018-05-06T10:22:50.035Z,21.45
2018-05-06T10:23:49.964Z,21.39
2018-05-06T10:24:49.896Z,21.42
2018-05-06T10:25:49.825Z,21.35
2018-05-06T10:26:49.758Z,21.53
2018-05-06T10:27:49.686Z,21.49
2018-05-06T10:28:49.616Z,21.59
2018-05-06T10:29:49.550Z,21.61
2018-05-06T10:30:49.479Z,21.75
2018-05-06T10:31:49.408Z,21.75
2018-05-06T10:32:49.340Z,21.72
2018-05-06T10:33:49.271Z,21.75
2018-05-06T10:34:49.201Z,21.84
2018-05-06T10:35:49.132Z,21.94
2018-05-06T10:36:49.062Z,21.89
2018-05-06T10:37:48.997Z,21.85
2018-05-06T10:38:48.925Z,21.94
2018-05-06T10:39:48.855Z,21.95
2018-05-06T10:40:48.786Z,22.04
2018-05-06T10:41:48.717Z,22.10
2018-05-06T10:42:48.648Z,22.30
2018-05-06T10:43:48.578Z,22.28
2018-05-06T10:44:48.510Z,22.28
2018-05-06T10:45:48.442Z,22.19
2018-05-06T10:46:48.372Z,22.12
2018-05-06T10:47:48.302Z,22.16
2018-05-06T10:48:48.233Z,22.26
2018-05-06T10:49:48.165Z,22.32
2018-05-06T10:50:48.096Z,22.24
2018-05-06T10:51:48.026Z,22.32
2018-05-06T10:52:47.957Z,22.19
2018-05-06T10:53:47.890Z,22.26
2018-05-06T10:54:47.821Z,22.31
2018-05-06T10:55:47.752Z,22.49
2018-05-06T10:56:47.682Z,22.54
2018-05-06T10:57:47.693Z,22.60
2018-05-06T10:58:47.547Z,22.65
2018-05-06T10:59:47.480Z,22.57
2018-05-06T11:00:47.410Z,22.49
2018-05-06T11:01:47.340Z,22.69
2018-05-06T11:02:47.273Z,22.86
2018-05-06T11:03:47.271Z,22.99
2018-05-06T11:04:47.136Z,22.92
2018-05-06T11:05:47.069Z,22.92
2018-05-06T11:06:47.001Z,22.93
2018-05-06T11:07:46.933Z,22.96
2018-05-06T11:08:46.865Z,22.96
2018-05-06T11:09:46.803Z,23.07
2018-05-06T11:10:46.731Z,22.97
2018-05-06T11:11:46.669Z,23.07
2018-05-06T11:12:46.602Z,23.27
2018-05-06T11:13:46.535Z,23.38
2018-05-06T11:14:46.461Z,23.38
2018-05-06T11:15:46.393Z,23.52
2018-05-06T11:16:46.328Z,23.38
2018-05-06T11:17:46.261Z,23.24
2018-05-06T11:18:46.197Z,23.29
2018-05-06T11:19:46.123Z,23.52
2018-05-06T11:20:46.058Z,23.40
2018-05-06T11:21:45.990Z,23.70
2018-05-06T11:22:45.923Z,24.02
2018-05-06T11:23:45.855Z,24.02
2018-05-06T11:24:45.787Z,24.15
2018-05-06T11:25:45.721Z,24.05
2018-05-06T11:26:45.653Z,24.17
2018-05-06T11:27:45.587Z,24.34
2018-05-06T11:28:45.521Z,24.60
2018-05-06T11:29:45.454Z,24.66
2018-05-06T11:30:45.388Z,25.17
2018-05-06T11:31:45.321Z,25.34
2018-05-06T11:32:45.255Z,25.53
2018-05-06T11:33:45.208Z,25.65
2018-05-06T11:34:45.127Z,25.93
2018-05-06T11:35:45.141Z,26.11
2018-05-06T11:36:44.992Z,26.57
2018-05-06T11:37:44.929Z,26.65
2018-05-06T11:38:44.865Z,26.98
2018-05-06T11:39:44.801Z,27.19
2018-05-06T11:40:44.739Z,27.26
2018-05-06T11:41:44.675Z,27.64
2018-05-06T11:42:44.612Z,28.20
2018-05-06T11:43:44.551Z,28.04
2018-05-06T11:44:44.488Z,27.97
2018-05-06T11:45:44.429Z,28.17
2018-05-06T11:46:44.368Z,27.23
2018-05-06T11:47:44.305Z,26.57
2018-05-06T11:48:44.247Z,26.77
2018-05-06T11:49:44.189Z,27.26
2018-05-06T11:50:44.126Z,26.35
2018-05-06T11:51:44.069Z,27.13
2018-05-06T11:52:44.009Z,27.05
2018-05-06T11:53:43.948Z,27.39
2018-05-06T11:54:43.890Z,27.98
2018-05-06T11:55:43.829Z,28.31
2018-05-06T11:56:43.777Z,28.90
2018-05-06T11:57:43.714Z,29.50
2018-05-06T11:58:43.655Z,30.03
2018-05-06T11:59:43.608Z,30.11
2018-05-06T12:00:43.542Z,30.30
2018-05-06T12:01:43.484Z,29.71
2018-05-06T12:02:43.428Z,29.68
2018-05-06T12:03:43.371Z,29.58
2018-05-06T12:04:43.317Z,29.55
2018-05-06T12:05:43.259Z,29.69
2018-05-06T12:06:43.204Z,29.50
2018-05-06T12:07:43.148Z,29.40
2018-05-06T12:08:43.092Z,29.85
2018-05-06T12:09:43.036Z,30.34
2018-05-06T12:10:42.983Z,30.57
2018-05-06T12:11:42.928Z,30.33
2018-05-06T12:12:42.876Z,28.90
2018-05-06T12:13:42.817Z,29.37
2018-05-06T12:14:42.765Z,29.48
2018-05-06T12:15:42.708Z,29.95
2018-05-06T12:16:42.656Z,29.50
2018-05-06T12:17:42.605Z,28.57
2018-05-06T12:18:42.547Z,29.25
2018-05-06T12:19:42.491Z,29.77
2018-05-06T12:20:42.437Z,29.81
2018-05-06T12:21:42.385Z,29.31
2018-05-06T12:22:42.332Z,29.13
2018-05-06T12:23:42.276Z,29.63
2018-05-06T12:24:42.222Z,29.29
2018-05-06T12:25:42.168Z,29.18
2018-05-06T12:26:42.115Z,29.28
2018-05-06T12:27:42.060Z,29.65
2018-05-06T12:28:42.006Z,30.15
2018-05-06T12:29:41.952Z,30.68
2018-05-06T12:30:41.898Z,30.75
2018-05-06T12:31:41.843Z,30.43
2018-05-06T12:32:41.791Z,30.77
2018-05-06T12:33:41.770Z,30.62
2018-05-06T12:34:41.684Z,30.40
2018-05-06T12:35:41.629Z,30.21
2018-05-06T12:36:41.576Z,30.17
2018-05-06T12:37:41.526Z,30.40
2018-05-06T12:38:41.470Z,30.46
2018-05-06T12:39:41.417Z,30.26
2018-05-06T12:40:41.364Z,29.65
2018-05-06T12:41:41.310Z,29.09
2018-05-06T12:42:41.259Z,28.88
2018-05-06T12:43:41.204Z,28.98
2018-05-06T12:44:41.151Z,29.13
2018-05-06T12:45:41.097Z,29.28
2018-05-06T12:46:41.045Z,29.62
2018-05-06T12:47:40.990Z,29.92
2018-05-06T12:48:40.935Z,29.87
2018-05-06T12:49:40.882Z,30.06
2018-05-06T12:50:40.830Z,30.11
2018-05-06T12:51:40.775Z,29.69